sensor_id;sensor_type;location;lat;lon;timestamp;temperature;humidity
19200;DHT22;9732;52.498;5.408;2024-01-11T00:01:21;-2.40;99.90
19200;DHT22;9732;52.498;5.408;2024-01-11T00:03:47;-2.50;99.90
19200;DHT22;9732;52.498;5.408;2024-01-11T00:06:14;-2.50;99.90
19200;DHT22;9732;52.498;5.408;2024-01-11T00:08:42;-2.50;99.90
19200;DHT22;9732;52.498;5.408;2024-01-11T00:11:10;-2.40;99.90
19200;DHT22;9732;52.498;5.408;2024-01-11T00:13:36;-2.40;99.90
19200;DHT22;9732;52.498;5.408;2024-01-11T00:16:04;-2.40;99.90
19200;DHT22;9732;52.498;5.408;2024-01-11T00:18:30;-2.50;99.90
19200;DHT22;9732;52.498;5.408;2024-01-11T00:20:57;-2.50;99.90
19200;DHT22;9732;52.498;5.408;2024-01-11T00:23:24;-2.40;99.90
19200;DHT22;9732;52.498;5.408;2024-01-11T00:25:52;-2.50;99.90
19200;DHT22;9732;52.498;5.408;2024-01-11T00:28:19;-2.50;99.90
19200;DHT22;9732;52.498;5.408;2024-01-11T00:30:45;-2.50;99.90
19200;DHT22;9732;52.498;5.408;2024-01-11T00:33:12;-2.60;99.90
19200;DHT22;9732;52.498;5.408;2024-01-11T00:35:39;-2.50;99.90
19200;DHT22;9732;52.498;5.408;2024-01-11T00:38:05;-2.50;99.90
19200;DHT22;9732;52.498;5.408;2024-01-11T00:40:32;-2.50;99.90
19200;DHT22;9732;52.498;5.408;2024-01-11T00:43:00;-2.50;99.90
19200;DHT22;9732;52.498;5.408;2024-01-11T00:45:27;-2.50;99.90
19200;DHT22;9732;52.498;5.408;2024-01-11T00:47:54;-2.60;99.90
19200;DHT22;9732;52.498;5.408;2024-01-11T00:50:20;-2.60;99.90
19200;DHT22;9732;52.498;5.408;2024-01-11T00:52:47;-2.50;99.90
19200;DHT22;9732;52.498;5.408;2024-01-11T00:55:14;-2.60;99.90
19200;DHT22;9732;52.498;5.408;2024-01-11T00:57:41;-2.60;99.90
19200;DHT22;9732;52.498;5.408;2024-01-11T01:00:11;-2.60;99.90
19200;DHT22;9732;52.498;5.408;2024-01-11T01:02:40;-2.80;99.90
19200;DHT22;9732;52.498;5.408;2024-01-11T01:05:07;-2.80;99.90
19200;DHT22;9732;52.498;5.408;2024-01-11T01:07:34;-2.90;99.90
19200;DHT22;9732;52.498;5.408;2024-01-11T01:10:01;-2.80;99.90
19200;DHT22;9732;52.498;5.408;2024-01-11T01:12:28;-2.90;99.90
19200;DHT22;9732;52.498;5.408;2024-01-11T01:14:55;-2.90;99.90
19200;DHT22;9732;52.498;5.408;2024-01-11T01:17:23;-3.00;99.90
19200;DHT22;9732;52.498;5.408;2024-01-11T01:19:50;-2.90;99.90
19200;DHT22;9732;52.498;5.408;2024-01-11T01:22:16;-2.90;99.90
19200;DHT22;9732;52.498;5.408;2024-01-11T01:24:43;-3.00;99.90
19200;DHT22;9732;52.498;5.408;2024-01-11T01:27:10;-3.00;99.90
19200;DHT22;9732;52.498;5.408;2024-01-11T01:29:36;-3.00;99.90
19200;DHT22;9732;52.498;5.408;2024-01-11T01:32:04;-2.90;99.90
19200;DHT22;9732;52.498;5.408;2024-01-11T01:34:32;-2.90;99.90
19200;DHT22;9732;52.498;5.408;2024-01-11T01:36:59;-2.90;99.90
19200;DHT22;9732;52.498;5.408;2024-01-11T01:39:26;-2.80;99.90
19200;DHT22;9732;52.498;5.408;2024-01-11T01:41:52;-2.80;99.90
19200;DHT22;9732;52.498;5.408;2024-01-11T01:44:19;-2.80;99.90
19200;DHT22;9732;52.498;5.408;2024-01-11T01:46:47;-2.70;99.90
19200;DHT22;9732;52.498;5.408;2024-01-11T01:49:14;-2.70;99.90
19200;DHT22;9732;52.498;5.408;2024-01-11T01:51:45;-2.70;99.90
19200;DHT22;9732;52.498;5.408;2024-01-11T01:54:11;-2.70;99.90
19200;DHT22;9732;52.498;5.408;2024-01-11T01:56:38;-2.70;99.90
19200;DHT22;9732;52.498;5.408;2024-01-11T01:59:05;-2.70;99.90
19200;DHT22;9732;52.498;5.408;2024-01-11T02:01:32;-2.80;99.90
19200;DHT22;9732;52.498;5.408;2024-01-11T02:04:00;-2.70;99.90
19200;DHT22;9732;52.498;5.408;2024-01-11T02:06:27;-2.70;99.90
19200;DHT22;9732;52.498;5.408;2024-01-11T02:08:59;-2.80;99.90
19200;DHT22;9732;52.498;5.408;2024-01-11T02:11:27;-2.80;99.90
19200;DHT22;9732;52.498;5.408;2024-01-11T02:13:55;-2.80;99.90
19200;DHT22;9732;52.498;5.408;2024-01-11T02:16:23;-2.70;99.90
19200;DHT22;9732;52.498;5.408;2024-01-11T02:18:50;-2.70;99.90
19200;DHT22;9732;52.498;5.408;2024-01-11T02:21:19;-2.80;99.90
19200;DHT22;9732;52.498;5.408;2024-01-11T02:24:02;-2.80;99.90
19200;DHT22;9732;52.498;5.408;2024-01-11T02:26:29;-2.80;99.90
19200;DHT22;9732;52.498;5.408;2024-01-11T02:28:56;-2.80;99.90
19200;DHT22;9732;52.498;5.408;2024-01-11T02:31:25;-2.90;99.90
19200;DHT22;9732;52.498;5.408;2024-01-11T02:33:52;-2.90;99.90
19200;DHT22;9732;52.498;5.408;2024-01-11T02:36:20;-2.90;99.90
19200;DHT22;9732;52.498;5.408;2024-01-11T02:38:47;-2.90;99.90
19200;DHT22;9732;52.498;5.408;2024-01-11T02:41:16;-2.90;99.90
19200;DHT22;9732;52.498;5.408;2024-01-11T02:43:46;-2.90;99.90
19200;DHT22;9732;52.498;5.408;2024-01-11T02:46:14;-2.90;99.90
19200;DHT22;9732;52.498;5.408;2024-01-11T02:48:41;-2.90;99.90
19200;DHT22;9732;52.498;5.408;2024-01-11T02:51:07;-2.90;99.90
19200;DHT22;9732;52.498;5.408;2024-01-11T02:53:34;-2.90;99.90
19200;DHT22;9732;52.498;5.408;2024-01-11T02:56:01;-2.90;99.90
19200;DHT22;9732;52.498;5.408;2024-01-11T02:58:29;-2.90;99.90
19200;DHT22;9732;52.498;5.408;2024-01-11T03:00:56;-2.90;99.90
19200;DHT22;9732;52.498;5.408;2024-01-11T03:03:22;-2.90;99.90
19200;DHT22;9732;52.498;5.408;2024-01-11T03:05:49;-2.90;99.90
19200;DHT22;9732;52.498;5.408;2024-01-11T03:08:16;-3.10;99.90
19200;DHT22;9732;52.498;5.408;2024-01-11T03:10:42;-3.10;99.90
19200;DHT22;9732;52.498;5.408;2024-01-11T03:13:09;-3.10;99.90
19200;DHT22;9732;52.498;5.408;2024-01-11T03:15:37;-3.00;99.90
19200;DHT22;9732;52.498;5.408;2024-01-11T03:18:04;-3.00;99.90
19200;DHT22;9732;52.498;5.408;2024-01-11T03:20:31;-3.00;99.90
19200;DHT22;9732;52.498;5.408;2024-01-11T03:22:58;-3.00;99.90
19200;DHT22;9732;52.498;5.408;2024-01-11T03:25:24;-3.00;99.90
19200;DHT22;9732;52.498;5.408;2024-01-11T03:27:51;-3.10;99.90
19200;DHT22;9732;52.498;5.408;2024-01-11T03:30:18;-3.20;99.90
19200;DHT22;9732;52.498;5.408;2024-01-11T03:32:46;-3.20;99.90
19200;DHT22;9732;52.498;5.408;2024-01-11T03:35:13;-3.30;99.90
19200;DHT22;9732;52.498;5.408;2024-01-11T03:37:40;-3.30;99.90
19200;DHT22;9732;52.498;5.408;2024-01-11T03:40:07;-3.30;99.90
19200;DHT22;9732;52.498;5.408;2024-01-11T03:42:34;-3.30;99.90
19200;DHT22;9732;52.498;5.408;2024-01-11T03:45:00;-3.20;99.90
19200;DHT22;9732;52.498;5.408;2024-01-11T03:47:28;-3.20;99.90
19200;DHT22;9732;52.498;5.408;2024-01-11T03:49:56;-3.20;99.90
19200;DHT22;9732;52.498;5.408;2024-01-11T03:52:23;-3.10;99.90
19200;DHT22;9732;52.498;5.408;2024-01-11T03:54:50;-3.10;99.90
19200;DHT22;9732;52.498;5.408;2024-01-11T03:57:17;-3.10;99.90
19200;DHT22;9732;52.498;5.408;2024-01-11T03:59:43;-3.10;99.90
19200;DHT22;9732;52.498;5.408;2024-01-11T04:02:10;-3.20;99.90
19200;DHT22;9732;52.498;5.408;2024-01-11T04:04:37;-3.20;99.90
19200;DHT22;9732;52.498;5.408;2024-01-11T04:07:05;-3.10;99.90
19200;DHT22;9732;52.498;5.408;2024-01-11T04:09:32;-3.20;99.90
19200;DHT22;9732;52.498;5.408;2024-01-11T04:11:59;-3.20;99.90
19200;DHT22;9732;52.498;5.408;2024-01-11T04:14:25;-3.20;99.90
19200;DHT22;9732;52.498;5.408;2024-01-11T04:16:52;-3.10;99.90
19200;DHT22;9732;52.498;5.408;2024-01-11T04:19:19;-3.10;99.90
19200;DHT22;9732;52.498;5.408;2024-01-11T04:21:46;-3.10;99.90
19200;DHT22;9732;52.498;5.408;2024-01-11T04:24:14;-3.10;99.90
19200;DHT22;9732;52.498;5.408;2024-01-11T04:26:40;-3.10;99.90
19200;DHT22;9732;52.498;5.408;2024-01-11T04:29:07;-3.10;99.90
19200;DHT22;9732;52.498;5.408;2024-01-11T04:31:34;-3.10;99.90
19200;DHT22;9732;52.498;5.408;2024-01-11T04:34:00;-3.10;99.90
19200;DHT22;9732;52.498;5.408;2024-01-11T04:36:27;-3.20;99.90
19200;DHT22;9732;52.498;5.408;2024-01-11T04:38:54;-3.30;99.90
19200;DHT22;9732;52.498;5.408;2024-01-11T04:41:22;-3.30;99.90
19200;DHT22;9732;52.498;5.408;2024-01-11T04:43:48;-3.30;99.90
19200;DHT22;9732;52.498;5.408;2024-01-11T04:46:16;-3.30;99.90
19200;DHT22;9732;52.498;5.408;2024-01-11T04:48:43;-3.30;99.90
19200;DHT22;9732;52.498;5.408;2024-01-11T04:51:11;-3.30;99.90
19200;DHT22;9732;52.498;5.408;2024-01-11T04:53:38;-3.20;99.90
19200;DHT22;9732;52.498;5.408;2024-01-11T04:56:06;-3.10;99.90
19200;DHT22;9732;52.498;5.408;2024-01-11T04:58:35;-3.20;99.90
19200;DHT22;9732;52.498;5.408;2024-01-11T05:01:03;-3.10;99.90
19200;DHT22;9732;52.498;5.408;2024-01-11T05:03:30;-3.10;99.90
19200;DHT22;9732;52.498;5.408;2024-01-11T05:05:57;-3.10;99.90
19200;DHT22;9732;52.498;5.408;2024-01-11T05:08:24;-3.10;99.90
19200;DHT22;9732;52.498;5.408;2024-01-11T05:10:51;-3.10;99.90
19200;DHT22;9732;52.498;5.408;2024-01-11T05:13:18;-3.10;99.90
19200;DHT22;9732;52.498;5.408;2024-01-11T05:15:46;-3.20;99.90
19200;DHT22;9732;52.498;5.408;2024-01-11T05:18:12;-3.30;99.90
19200;DHT22;9732;52.498;5.408;2024-01-11T05:20:40;-3.30;99.90
19200;DHT22;9732;52.498;5.408;2024-01-11T05:23:07;-3.30;99.90
19200;DHT22;9732;52.498;5.408;2024-01-11T05:25:34;-3.40;99.90
19200;DHT22;9732;52.498;5.408;2024-01-11T05:28:01;-3.50;99.90
19200;DHT22;9732;52.498;5.408;2024-01-11T05:30:28;-3.40;99.90
19200;DHT22;9732;52.498;5.408;2024-01-11T05:32:56;-3.40;99.90
19200;DHT22;9732;52.498;5.408;2024-01-11T05:35:23;-3.40;99.90
19200;DHT22;9732;52.498;5.408;2024-01-11T05:37:52;-3.50;99.90
19200;DHT22;9732;52.498;5.408;2024-01-11T05:40:20;-3.40;99.90
19200;DHT22;9732;52.498;5.408;2024-01-11T05:42:47;-3.50;99.90
19200;DHT22;9732;52.498;5.408;2024-01-11T05:45:13;-3.40;99.90
19200;DHT22;9732;52.498;5.408;2024-01-11T05:47:42;-3.40;99.90
19200;DHT22;9732;52.498;5.408;2024-01-11T05:50:10;-3.40;99.90
19200;DHT22;9732;52.498;5.408;2024-01-11T05:52:37;-3.30;99.90
19200;DHT22;9732;52.498;5.408;2024-01-11T05:55:04;-3.20;99.90
19200;DHT22;9732;52.498;5.408;2024-01-11T05:57:31;-3.20;99.90
19200;DHT22;9732;52.498;5.408;2024-01-11T05:59:59;-3.10;99.90
19200;DHT22;9732;52.498;5.408;2024-01-11T06:02:26;-3.00;99.90
19200;DHT22;9732;52.498;5.408;2024-01-11T06:04:52;-3.00;99.90
19200;DHT22;9732;52.498;5.408;2024-01-11T06:07:20;-2.90;99.90
19200;DHT22;9732;52.498;5.408;2024-01-11T06:09:47;-2.90;99.90
19200;DHT22;9732;52.498;5.408;2024-01-11T06:12:14;-2.80;99.90
19200;DHT22;9732;52.498;5.408;2024-01-11T06:14:41;-2.80;99.90
19200;DHT22;9732;52.498;5.408;2024-01-11T06:17:08;-2.80;99.90
19200;DHT22;9732;52.498;5.408;2024-01-11T06:19:36;-2.70;99.90
19200;DHT22;9732;52.498;5.408;2024-01-11T06:22:04;-2.00;99.90
19200;DHT22;9732;52.498;5.408;2024-01-11T06:24:33;-2.80;99.90
19200;DHT22;9732;52.498;5.408;2024-01-11T06:27:00;-2.70;99.90
19200;DHT22;9732;52.498;5.408;2024-01-11T06:29:27;-2.70;99.90
19200;DHT22;9732;52.498;5.408;2024-01-11T06:31:54;-2.70;99.90
19200;DHT22;9732;52.498;5.408;2024-01-11T06:34:21;-2.80;99.90
19200;DHT22;9732;52.498;5.408;2024-01-11T06:36:47;-2.80;99.90
19200;DHT22;9732;52.498;5.408;2024-01-11T06:39:14;-2.80;99.90
19200;DHT22;9732;52.498;5.408;2024-01-11T06:41:42;-2.90;99.90
19200;DHT22;9732;52.498;5.408;2024-01-11T06:44:09;-2.90;99.90
19200;DHT22;9732;52.498;5.408;2024-01-11T06:46:36;-2.90;99.90
19200;DHT22;9732;52.498;5.408;2024-01-11T06:49:04;-2.90;99.90
19200;DHT22;9732;52.498;5.408;2024-01-11T06:51:31;-2.80;99.90
19200;DHT22;9732;52.498;5.408;2024-01-11T06:53:59;-2.80;99.90
19200;DHT22;9732;52.498;5.408;2024-01-11T06:56:26;-2.80;99.90
19200;DHT22;9732;52.498;5.408;2024-01-11T06:58:55;-2.90;99.90
19200;DHT22;9732;52.498;5.408;2024-01-11T07:01:25;-2.80;99.90
19200;DHT22;9732;52.498;5.408;2024-01-11T07:03:51;-2.80;99.90
19200;DHT22;9732;52.498;5.408;2024-01-11T07:06:18;-2.90;99.90
19200;DHT22;9732;52.498;5.408;2024-01-11T07:08:45;-2.90;99.90
19200;DHT22;9732;52.498;5.408;2024-01-11T07:11:11;-2.90;99.90
19200;DHT22;9732;52.498;5.408;2024-01-11T07:13:38;-3.00;99.90
19200;DHT22;9732;52.498;5.408;2024-01-11T07:16:06;-3.00;99.90
19200;DHT22;9732;52.498;5.408;2024-01-11T07:18:33;-3.00;99.90
19200;DHT22;9732;52.498;5.408;2024-01-11T07:21:00;-3.00;99.90
19200;DHT22;9732;52.498;5.408;2024-01-11T07:23:27;-3.00;99.90
19200;DHT22;9732;52.498;5.408;2024-01-11T07:25:53;-3.00;99.90
19200;DHT22;9732;52.498;5.408;2024-01-11T07:28:20;-3.00;99.90
19200;DHT22;9732;52.498;5.408;2024-01-11T07:30:50;-3.00;99.90
19200;DHT22;9732;52.498;5.408;2024-01-11T07:33:19;-2.90;99.90
19200;DHT22;9732;52.498;5.408;2024-01-11T07:35:46;-2.90;99.90
19200;DHT22;9732;52.498;5.408;2024-01-11T07:38:13;-2.90;99.90
19200;DHT22;9732;52.498;5.408;2024-01-11T07:40:39;-2.80;99.90
19200;DHT22;9732;52.498;5.408;2024-01-11T07:43:06;-2.80;99.90
19200;DHT22;9732;52.498;5.408;2024-01-11T07:45:34;-2.70;99.90
19200;DHT22;9732;52.498;5.408;2024-01-11T07:48:00;-2.60;99.90
19200;DHT22;9732;52.498;5.408;2024-01-11T07:50:30;-2.50;99.90
19200;DHT22;9732;52.498;5.408;2024-01-11T07:52:57;-2.40;99.90
19200;DHT22;9732;52.498;5.408;2024-01-11T07:55:23;-2.30;99.90
19200;DHT22;9732;52.498;5.408;2024-01-11T07:57:51;-2.30;99.90
19200;DHT22;9732;52.498;5.408;2024-01-11T08:00:18;-2.20;99.90
19200;DHT22;9732;52.498;5.408;2024-01-11T08:02:45;-2.10;99.90
19200;DHT22;9732;52.498;5.408;2024-01-11T08:05:12;-2.10;99.90
19200;DHT22;9732;52.498;5.408;2024-01-11T08:07:40;-2.00;99.90
19200;DHT22;9732;52.498;5.408;2024-01-11T08:10:08;-2.00;99.90
19200;DHT22;9732;52.498;5.408;2024-01-11T08:12:36;-2.00;99.90
19200;DHT22;9732;52.498;5.408;2024-01-11T08:15:03;-1.90;99.90
19200;DHT22;9732;52.498;5.408;2024-01-11T08:17:30;-1.80;99.90
19200;DHT22;9732;52.498;5.408;2024-01-11T08:19:56;-1.80;99.90
19200;DHT22;9732;52.498;5.408;2024-01-11T08:22:23;-1.80;99.90
19200;DHT22;9732;52.498;5.408;2024-01-11T08:24:51;-1.70;99.90
19200;DHT22;9732;52.498;5.408;2024-01-11T08:27:18;-1.70;99.90
19200;DHT22;9732;52.498;5.408;2024-01-11T08:29:44;-1.70;99.90
19200;DHT22;9732;52.498;5.408;2024-01-11T08:32:12;-1.70;99.90
19200;DHT22;9732;52.498;5.408;2024-01-11T08:34:39;-1.50;99.90
19200;DHT22;9732;52.498;5.408;2024-01-11T08:37:05;-1.50;99.90
19200;DHT22;9732;52.498;5.408;2024-01-11T08:39:32;-1.50;99.90
19200;DHT22;9732;52.498;5.408;2024-01-11T08:42:00;-1.50;99.90
19200;DHT22;9732;52.498;5.408;2024-01-11T08:44:27;-1.40;99.90
19200;DHT22;9732;52.498;5.408;2024-01-11T08:46:55;-1.30;99.90
19200;DHT22;9732;52.498;5.408;2024-01-11T08:49:22;-1.20;99.90
19200;DHT22;9732;52.498;5.408;2024-01-11T08:51:50;-1.20;99.90
19200;DHT22;9732;52.498;5.408;2024-01-11T08:54:16;-1.20;99.90
19200;DHT22;9732;52.498;5.408;2024-01-11T08:56:46;-1.10;99.90
19200;DHT22;9732;52.498;5.408;2024-01-11T08:59:14;-1.10;99.90
19200;DHT22;9732;52.498;5.408;2024-01-11T09:01:41;-1.00;99.90
19200;DHT22;9732;52.498;5.408;2024-01-11T09:04:07;-1.00;99.90
19200;DHT22;9732;52.498;5.408;2024-01-11T09:06:34;-1.00;99.90
19200;DHT22;9732;52.498;5.408;2024-01-11T09:09:01;-1.00;99.90
19200;DHT22;9732;52.498;5.408;2024-01-11T09:11:28;-1.00;99.90
19200;DHT22;9732;52.498;5.408;2024-01-11T09:13:55;-0.90;99.90
19200;DHT22;9732;52.498;5.408;2024-01-11T09:16:23;-0.80;99.90
19200;DHT22;9732;52.498;5.408;2024-01-11T09:18:50;-0.80;99.90
19200;DHT22;9732;52.498;5.408;2024-01-11T09:21:17;-0.80;99.90
19200;DHT22;9732;52.498;5.408;2024-01-11T09:23:44;-0.70;99.90
19200;DHT22;9732;52.498;5.408;2024-01-11T09:26:11;-0.70;99.90
19200;DHT22;9732;52.498;5.408;2024-01-11T09:28:38;-0.60;99.90
19200;DHT22;9732;52.498;5.408;2024-01-11T09:31:05;-0.60;99.90
19200;DHT22;9732;52.498;5.408;2024-01-11T09:33:33;-0.50;99.90
19200;DHT22;9732;52.498;5.408;2024-01-11T09:36:00;-0.50;99.90
19200;DHT22;9732;52.498;5.408;2024-01-11T09:38:27;-0.50;99.90
19200;DHT22;9732;52.498;5.408;2024-01-11T09:41:01;-0.40;99.90
19200;DHT22;9732;52.498;5.408;2024-01-11T09:43:33;-0.50;99.90
19200;DHT22;9732;52.498;5.408;2024-01-11T09:46:01;-0.40;99.90
19200;DHT22;9732;52.498;5.408;2024-01-11T09:48:30;-0.40;99.90
19200;DHT22;9732;52.498;5.408;2024-01-11T09:51:01;-0.30;99.90
19200;DHT22;9732;52.498;5.408;2024-01-11T09:53:29;-0.30;99.90
19200;DHT22;9732;52.498;5.408;2024-01-11T09:55:56;-0.20;99.90
19200;DHT22;9732;52.498;5.408;2024-01-11T09:58:24;-0.20;99.90
19200;DHT22;9732;52.498;5.408;2024-01-11T10:00:54;-0.10;99.90
19200;DHT22;9732;52.498;5.408;2024-01-11T10:03:23;-0.10;99.90
19200;DHT22;9732;52.498;5.408;2024-01-11T10:05:50;0.00;99.90
19200;DHT22;9732;52.498;5.408;2024-01-11T10:08:19;-0.10;99.90
19200;DHT22;9732;52.498;5.408;2024-01-11T10:10:47;0.10;99.90
19200;DHT22;9732;52.498;5.408;2024-01-11T10:13:14;0.10;99.90
19200;DHT22;9732;52.498;5.408;2024-01-11T10:15:41;0.20;99.90
19200;DHT22;9732;52.498;5.408;2024-01-11T10:18:08;0.90;99.90
19200;DHT22;9732;52.498;5.408;2024-01-11T10:20:35;0.30;99.90
19200;DHT22;9732;52.498;5.408;2024-01-11T10:23:02;0.30;99.90
19200;DHT22;9732;52.498;5.408;2024-01-11T10:25:31;0.30;99.90
19200;DHT22;9732;52.498;5.408;2024-01-11T10:27:58;0.40;99.90
19200;DHT22;9732;52.498;5.408;2024-01-11T10:30:25;0.40;99.90
19200;DHT22;9732;52.498;5.408;2024-01-11T10:32:51;0.40;99.90
19200;DHT22;9732;52.498;5.408;2024-01-11T10:35:18;0.50;99.90
19200;DHT22;9732;52.498;5.408;2024-01-11T10:37:50;0.50;99.90
19200;DHT22;9732;52.498;5.408;2024-01-11T10:40:20;0.50;99.90
19200;DHT22;9732;52.498;5.408;2024-01-11T10:42:52;0.60;99.90
19200;DHT22;9732;52.498;5.408;2024-01-11T10:45:19;0.60;99.90
19200;DHT22;9732;52.498;5.408;2024-01-11T10:47:51;0.70;99.90
19200;DHT22;9732;52.498;5.408;2024-01-11T10:50:19;0.70;99.90
19200;DHT22;9732;52.498;5.408;2024-01-11T10:52:56;0.70;99.90
19200;DHT22;9732;52.498;5.408;2024-01-11T10:55:29;0.70;99.90
19200;DHT22;9732;52.498;5.408;2024-01-11T10:57:58;0.80;99.90
19200;DHT22;9732;52.498;5.408;2024-01-11T11:00:27;0.80;99.90
19200;DHT22;9732;52.498;5.408;2024-01-11T11:02:55;0.80;99.90
19200;DHT22;9732;52.498;5.408;2024-01-11T11:05:22;0.90;99.90
19200;DHT22;9732;52.498;5.408;2024-01-11T11:07:49;1.00;99.90
19200;DHT22;9732;52.498;5.408;2024-01-11T11:10:18;1.00;99.90
19200;DHT22;9732;52.498;5.408;2024-01-11T11:12:45;1.10;99.90
19200;DHT22;9732;52.498;5.408;2024-01-11T11:15:14;1.20;99.90
19200;DHT22;9732;52.498;5.408;2024-01-11T11:17:42;1.30;99.90
19200;DHT22;9732;52.498;5.408;2024-01-11T11:20:11;1.30;99.90
19200;DHT22;9732;52.498;5.408;2024-01-11T11:22:40;1.40;99.90
19200;DHT22;9732;52.498;5.408;2024-01-11T11:25:08;1.40;99.90
19200;DHT22;9732;52.498;5.408;2024-01-11T11:27:36;1.50;99.90
19200;DHT22;9732;52.498;5.408;2024-01-11T11:30:03;1.60;99.90
19200;DHT22;9732;52.498;5.408;2024-01-11T11:32:42;1.60;99.90
19200;DHT22;9732;52.498;5.408;2024-01-11T11:35:09;1.60;99.90
19200;DHT22;9732;52.498;5.408;2024-01-11T11:37:36;1.60;99.90
19200;DHT22;9732;52.498;5.408;2024-01-11T11:40:04;1.70;99.90
19200;DHT22;9732;52.498;5.408;2024-01-11T11:42:32;1.70;99.90
19200;DHT22;9732;52.498;5.408;2024-01-11T11:45:00;1.80;99.90
19200;DHT22;9732;52.498;5.408;2024-01-11T11:47:34;1.80;99.90
19200;DHT22;9732;52.498;5.408;2024-01-11T11:50:07;1.80;99.90
19200;DHT22;9732;52.498;5.408;2024-01-11T11:52:36;1.80;99.90
19200;DHT22;9732;52.498;5.408;2024-01-11T11:55:04;1.70;99.90
19200;DHT22;9732;52.498;5.408;2024-01-11T11:57:32;1.80;99.90
19200;DHT22;9732;52.498;5.408;2024-01-11T11:59:59;1.90;99.90
19200;DHT22;9732;52.498;5.408;2024-01-11T12:02:30;1.90;99.90
19200;DHT22;9732;52.498;5.408;2024-01-11T12:04:57;1.90;99.90
19200;DHT22;9732;52.498;5.408;2024-01-11T12:07:26;1.90;99.90
19200;DHT22;9732;52.498;5.408;2024-01-11T12:09:53;2.00;99.90
19200;DHT22;9732;52.498;5.408;2024-01-11T12:12:20;2.00;99.90
19200;DHT22;9732;52.498;5.408;2024-01-11T12:14:47;2.10;99.90
19200;DHT22;9732;52.498;5.408;2024-01-11T12:17:14;2.10;99.90
19200;DHT22;9732;52.498;5.408;2024-01-11T12:19:41;2.10;99.90
19200;DHT22;9732;52.498;5.408;2024-01-11T12:22:08;2.20;99.90
19200;DHT22;9732;52.498;5.408;2024-01-11T12:24:36;2.20;99.90
19200;DHT22;9732;52.498;5.408;2024-01-11T12:27:04;2.20;99.90
19200;DHT22;9732;52.498;5.408;2024-01-11T12:29:31;2.30;99.90
19200;DHT22;9732;52.498;5.408;2024-01-11T12:31:58;2.30;99.90
19200;DHT22;9732;52.498;5.408;2024-01-11T12:34:25;2.40;99.90
19200;DHT22;9732;52.498;5.408;2024-01-11T12:36:52;2.50;99.90
19200;DHT22;9732;52.498;5.408;2024-01-11T12:39:20;2.50;99.90
19200;DHT22;9732;52.498;5.408;2024-01-11T12:41:50;2.50;99.90
19200;DHT22;9732;52.498;5.408;2024-01-11T12:44:17;2.50;99.90
19200;DHT22;9732;52.498;5.408;2024-01-11T12:46:47;2.60;99.90
19200;DHT22;9732;52.498;5.408;2024-01-11T12:49:14;2.50;99.90
19200;DHT22;9732;52.498;5.408;2024-01-11T12:51:41;2.50;99.90
19200;DHT22;9732;52.498;5.408;2024-01-11T12:54:11;2.60;99.90
19200;DHT22;9732;52.498;5.408;2024-01-11T12:56:40;2.60;99.90
19200;DHT22;9732;52.498;5.408;2024-01-11T12:59:09;2.60;99.90
19200;DHT22;9732;52.498;5.408;2024-01-11T13:01:38;2.60;99.90
19200;DHT22;9732;52.498;5.408;2024-01-11T13:04:05;2.60;99.90
19200;DHT22;9732;52.498;5.408;2024-01-11T13:06:32;2.50;99.90
19200;DHT22;9732;52.498;5.408;2024-01-11T13:09:00;2.50;99.90
19200;DHT22;9732;52.498;5.408;2024-01-11T13:11:26;2.50;99.90
19200;DHT22;9732;52.498;5.408;2024-01-11T13:13:54;2.50;99.90
19200;DHT22;9732;52.498;5.408;2024-01-11T13:16:24;2.50;99.90
19200;DHT22;9732;52.498;5.408;2024-01-11T13:18:51;2.50;99.90
19200;DHT22;9732;52.498;5.408;2024-01-11T13:21:18;2.50;99.90
19200;DHT22;9732;52.498;5.408;2024-01-11T13:23:45;2.60;99.90
19200;DHT22;9732;52.498;5.408;2024-01-11T13:26:11;2.60;99.90
19200;DHT22;9732;52.498;5.408;2024-01-11T13:28:38;2.60;99.90
19200;DHT22;9732;52.498;5.408;2024-01-11T13:31:06;2.50;99.90
19200;DHT22;9732;52.498;5.408;2024-01-11T13:33:37;2.50;99.90
19200;DHT22;9732;52.498;5.408;2024-01-11T13:36:04;2.50;99.90
19200;DHT22;9732;52.498;5.408;2024-01-11T13:38:35;2.50;99.90
19200;DHT22;9732;52.498;5.408;2024-01-11T13:41:02;2.50;99.90
19200;DHT22;9732;52.498;5.408;2024-01-11T13:43:28;2.50;99.90
19200;DHT22;9732;52.498;5.408;2024-01-11T13:45:55;2.50;99.90
19200;DHT22;9732;52.498;5.408;2024-01-11T13:48:22;2.50;99.90
19200;DHT22;9732;52.498;5.408;2024-01-11T13:50:50;2.50;99.90
19200;DHT22;9732;52.498;5.408;2024-01-11T13:53:16;2.40;99.90
19200;DHT22;9732;52.498;5.408;2024-01-11T13:55:43;2.50;99.90
19200;DHT22;9732;52.498;5.408;2024-01-11T13:58:10;2.50;99.90
19200;DHT22;9732;52.498;5.408;2024-01-11T14:00:38;2.50;99.90
19200;DHT22;9732;52.498;5.408;2024-01-11T14:03:05;2.50;99.90
19200;DHT22;9732;52.498;5.408;2024-01-11T14:05:31;2.50;99.90
19200;DHT22;9732;52.498;5.408;2024-01-11T14:08:00;2.50;99.90
19200;DHT22;9732;52.498;5.408;2024-01-11T14:10:31;2.50;99.90
19200;DHT22;9732;52.498;5.408;2024-01-11T14:12:59;2.50;99.90
19200;DHT22;9732;52.498;5.408;2024-01-11T14:15:27;2.50;99.90
19200;DHT22;9732;52.498;5.408;2024-01-11T14:17:54;2.60;99.90
19200;DHT22;9732;52.498;5.408;2024-01-11T14:20:21;2.50;99.90
19200;DHT22;9732;52.498;5.408;2024-01-11T14:22:49;2.60;99.90
19200;DHT22;9732;52.498;5.408;2024-01-11T14:25:19;2.60;99.90
19200;DHT22;9732;52.498;5.408;2024-01-11T14:27:47;2.70;99.90
19200;DHT22;9732;52.498;5.408;2024-01-11T14:30:13;2.70;99.90
19200;DHT22;9732;52.498;5.408;2024-01-11T14:32:40;2.70;99.90
19200;DHT22;9732;52.498;5.408;2024-01-11T14:35:08;2.70;99.90
19200;DHT22;9732;52.498;5.408;2024-01-11T14:37:37;2.70;99.90
19200;DHT22;9732;52.498;5.408;2024-01-11T14:40:04;2.80;99.90
19200;DHT22;9732;52.498;5.408;2024-01-11T14:42:32;2.80;99.90
19200;DHT22;9732;52.498;5.408;2024-01-11T14:44:59;2.90;99.90
19200;DHT22;9732;52.498;5.408;2024-01-11T14:47:26;2.90;99.90
19200;DHT22;9732;52.498;5.408;2024-01-11T14:49:53;2.90;99.90
19200;DHT22;9732;52.498;5.408;2024-01-11T14:52:19;2.90;99.90
19200;DHT22;9732;52.498;5.408;2024-01-11T14:54:46;2.80;99.90
19200;DHT22;9732;52.498;5.408;2024-01-11T14:57:14;2.80;99.90
19200;DHT22;9732;52.498;5.408;2024-01-11T14:59:42;2.90;99.90
19200;DHT22;9732;52.498;5.408;2024-01-11T15:02:08;2.90;99.90
19200;DHT22;9732;52.498;5.408;2024-01-11T15:04:35;2.90;99.90
19200;DHT22;9732;52.498;5.408;2024-01-11T15:07:02;2.90;99.90
19200;DHT22;9732;52.498;5.408;2024-01-11T15:09:29;2.90;99.90
19200;DHT22;9732;52.498;5.408;2024-01-11T15:11:56;2.80;99.90
19200;DHT22;9732;52.498;5.408;2024-01-11T15:14:23;2.80;99.90
19200;DHT22;9732;52.498;5.408;2024-01-11T15:16:51;2.80;99.90
19200;DHT22;9732;52.498;5.408;2024-01-11T15:19:17;2.70;99.90
19200;DHT22;9732;52.498;5.408;2024-01-11T15:21:44;2.60;99.90
19200;DHT22;9732;52.498;5.408;2024-01-11T15:24:11;2.70;99.90
19200;DHT22;9732;52.498;5.408;2024-01-11T15:26:38;2.60;99.90
19200;DHT22;9732;52.498;5.408;2024-01-11T15:29:05;2.60;99.90
19200;DHT22;9732;52.498;5.408;2024-01-11T15:31:32;2.60;99.90
19200;DHT22;9732;52.498;5.408;2024-01-11T15:34:02;2.60;99.90
19200;DHT22;9732;52.498;5.408;2024-01-11T15:36:29;2.70;99.90
19200;DHT22;9732;52.498;5.408;2024-01-11T15:38:55;2.60;99.90
19200;DHT22;9732;52.498;5.408;2024-01-11T15:41:22;2.60;99.90
19200;DHT22;9732;52.498;5.408;2024-01-11T15:43:49;2.50;99.90
19200;DHT22;9732;52.498;5.408;2024-01-11T15:46:16;2.60;99.90
19200;DHT22;9732;52.498;5.408;2024-01-11T15:48:42;2.70;99.90
19200;DHT22;9732;52.498;5.408;2024-01-11T15:51:11;2.70;99.90
19200;DHT22;9732;52.498;5.408;2024-01-11T15:53:37;2.80;99.90